Sadsburyville, Pennsylvania
Current Conditions -  °F | °C
As of 12:15 PM on Friday 19 Dec 2014 (Local Time) from KMQS Reporting Station
Overcast Overcast  
Wind Chill: 29°   Ceiling: 3100
Heat Index: 37°   Visibility: 10mi
Dew Point: 25°   Wind: 14mph
Humidity: 60%   Direction: 350°N
Pressure: 30.07"   Gusts: 20mph
Location:  39.98°N, 75.89°W
Report Text: KMQS 191715Z AUTO 35012G17KT 10SM OVC031 03/M04 A3007 RMK AO2
Loading
Personal Weather Stations






























Interactive Weather Map New forecast layout! Learn more

10-Day Weather Forecast

Advertisements
Track Severe Weather on mobile